Florencia — IBPD — position and weather

sailwx.info

Track history (hours):
 
Tides and Currents Weather Stations Pressure Air Temp Water Temp Dewpoint Dewpoint Depression Visibility Wind Speed Wind Dir Waves Ship Positions

Florencia

Last reported at 2017-Jan-17 03:23 UTC. Time now 2017-Jan-17 19:11 UTC.
Position N 38°49' E 015°24'.

Length 186 m; draft 6.5 m.

Type: Ship (hazmat cat C). MMSI: 247105900.

Date/timePositionNaut miles runAvg speedWind from/ knotsBaromVisibWave heightAir tempDewpointWater temp
2017-Jan-17 03:23N 38°49' E 015°24'1821.3
2017-Jan-17 02:33N 38°33' E 015°34'1818.2
2017-Jan-17 01:34N 38°15' E 015°40'2019.8
2017-Jan-17 00:33N 37°57' E 015°30'2221.5
2017-Jan-16 23:32N 37°37' E 015°18'12 0.7
2017-Jan-16 06:18N 37°29' E 015°06'8 9.9
2017-Jan-16 05:33N 37°32' E 015°15'2020.2
2017-Jan-16 04:33N 37°50' E 015°25'2020.3
2017-Jan-16 03:34N 38°09' E 015°35'1716.7
2017-Jan-16 02:34N 38°25' E 015°36'2121.2
2017-Jan-16 01:34N 38°44' E 015°25'2421.5
2017-Jan-16 00:27N 39°06' E 015°11'20 0.9
2017-Jan-15 03:33N 38°49' E 015°24'2121.3
2017-Jan-15 02:33N 38°30' E 015°36'1817.6
2017-Jan-15 01:34N 38°12' E 015°37'2120.7
2017-Jan-15 00:33N 37°53' E 015°27'2221.4
2017-Jan-14 23:33N 37°33' E 015°15'5 0.3
2017-Jan-14 08:12N 37°30' E 015°11'1319.6
2017-Jan-14 07:32N 37°41' E 015°20'2121.3
2017-Jan-14 06:33N 37°60' E 015°30'1818.3
2017-Jan-14 05:33N 38°16' E 015°40'2019.5
2017-Jan-14 04:33N 38°34' E 015°30'2120.8
2017-Jan-14 03:33N 38°53' E 015°18'3 0.1
2017-Jan-13 00:27N 38°52' E 015°21'2022.0
2017-Jan-12 23:33N 38°34' E 015°33'2019.8
2017-Jan-12 22:34N 38°16' E 015°41'2120.9
2017-Jan-12 21:34N 37°57' E 015°30'2322.3
2017-Jan-12 20:31N 37°36' E 015°17'11 0.8
2017-Jan-12 07:05N 37°28' E 015°07'1019.2
2017-Jan-12 06:32N 37°35' E 015°17'2222.1
2017-Jan-12 05:33N 37°55' E 015°28'2120.9
2017-Jan-12 04:33N 38°15' E 015°37'2018.5
2017-Jan-12 03:30N 38°34' E 015°31'2721.7
2017-Jan-12 02:16N 38°58' E 015°17'10 0.4
2017-Jan-11 03:33N 38°50' E 015°23'2121.6
2017-Jan-11 02:33N 38°30' E 015°35'1717.3
2017-Jan-11 01:34N 38°13' E 015°37'2121.5
2017-Jan-11 00:34N 37°53' E 015°27'2221.8
2017-Jan-10 23:33N 37°33' E 015°15'8 0.5
2017-Jan-10 07:14N 37°29' E 015°06'913.5
2017-Jan-10 06:32N 37°34' E 015°16'2222.2
2017-Jan-10 05:33N 37°54' E 015°27'2121.4
2017-Jan-10 04:34N 38°14' E 015°36'1616.3
2017-Jan-10 03:33N 38°30' E 015°33'2222.2
2017-Jan-10 02:33N 38°50' E 015°21'4 0.1
2017-Jan-09 00:30N 38°54' E 015°20'2021.2
2017-Jan-08 23:33N 38°36' E 015°31'2121.1
2017-Jan-08 22:34N 38°17' E 015°42'1919.1
2017-Jan-08 21:34N 37°60' E 015°31'2322.4
2017-Jan-08 20:33N 37°39' E 015°19'15 2.1
2017-Jan-08 13:23N 37°29' E 015°06'0 0.0
2017-Jan-08 07:15N 37°29' E 015°06'1013.6
2017-Jan-08 06:32N 37°34' E 015°16'2121.9
2017-Jan-08 05:34N 37°54' E 015°27'2221.8
2017-Jan-08 04:33N 38°14' E 015°36'1918.9
2017-Jan-08 03:33N 38°33' E 015°32'2221.8
2017-Jan-08 02:33N 38°52' E 015°20'  
Track history (hours):
 
Tides and Currents Weather Stations Pressure Air Temp Water Temp Dewpoint Dewpoint Depression Visibility Wind Speed Wind Dir Waves Ship Positions

Florencia

Last reported at 2017-Jan-17 03:23 UTC. Time now 2017-Jan-17 19:11 UTC.
Position N 38°49' E 015°24'.

Length 186 m; draft 6.5 m.

Type: Ship (hazmat cat C). MMSI: 247105900.

Date/timePositionNaut miles runAvg speedWind from/ knotsBaromVisibWave heightAir tempDewpointWater temp
2017-Jan-17 03:23N 38°49' E 015°24'1821.3
2017-Jan-17 02:33N 38°33' E 015°34'1818.2
2017-Jan-17 01:34N 38°15' E 015°40'2019.8
2017-Jan-17 00:33N 37°57' E 015°30'2221.5
2017-Jan-16 23:32N 37°37' E 015°18'12 0.7
2017-Jan-16 06:18N 37°29' E 015°06'8 9.9
2017-Jan-16 05:33N 37°32' E 015°15'2020.2
2017-Jan-16 04:33N 37°50' E 015°25'2020.3
2017-Jan-16 03:34N 38°09' E 015°35'1716.7
2017-Jan-16 02:34N 38°25' E 015°36'2121.2
2017-Jan-16 01:34N 38°44' E 015°25'2421.5
2017-Jan-16 00:27N 39°06' E 015°11'20 0.9
2017-Jan-15 03:33N 38°49' E 015°24'2121.3
2017-Jan-15 02:33N 38°30' E 015°36'1817.6
2017-Jan-15 01:34N 38°12' E 015°37'2120.7
2017-Jan-15 00:33N 37°53' E 015°27'2221.4
2017-Jan-14 23:33N 37°33' E 015°15'5 0.3
2017-Jan-14 08:12N 37°30' E 015°11'1319.6
2017-Jan-14 07:32N 37°41' E 015°20'2121.3
2017-Jan-14 06:33N 37°60' E 015°30'1818.3
2017-Jan-14 05:33N 38°16' E 015°40'2019.5
2017-Jan-14 04:33N 38°34' E 015°30'2120.8
2017-Jan-14 03:33N 38°53' E 015°18'3 0.1
2017-Jan-13 00:27N 38°52' E 015°21'2022.0
2017-Jan-12 23:33N 38°34' E 015°33'2019.8
2017-Jan-12 22:34N 38°16' E 015°41'2120.9
2017-Jan-12 21:34N 37°57' E 015°30'2322.3
2017-Jan-12 20:31N 37°36' E 015°17'11 0.8
2017-Jan-12 07:05N 37°28' E 015°07'1019.2
2017-Jan-12 06:32N 37°35' E 015°17'2222.1
2017-Jan-12 05:33N 37°55' E 015°28'2120.9
2017-Jan-12 04:33N 38°15' E 015°37'2018.5
2017-Jan-12 03:30N 38°34' E 015°31'2721.7
2017-Jan-12 02:16N 38°58' E 015°17'10 0.4
2017-Jan-11 03:33N 38°50' E 015°23'2121.6
2017-Jan-11 02:33N 38°30' E 015°35'1717.3
2017-Jan-11 01:34N 38°13' E 015°37'2121.5
2017-Jan-11 00:34N 37°53' E 015°27'2221.8
2017-Jan-10 23:33N 37°33' E 015°15'8 0.5
2017-Jan-10 07:14N 37°29' E 015°06'913.5
2017-Jan-10 06:32N 37°34' E 015°16'2222.2
2017-Jan-10 05:33N 37°54' E 015°27'2121.4
2017-Jan-10 04:34N 38°14' E 015°36'1616.3
2017-Jan-10 03:33N 38°30' E 015°33'2222.2
2017-Jan-10 02:33N 38°50' E 015°21'4 0.1
2017-Jan-09 00:30N 38°54' E 015°20'2021.2
2017-Jan-08 23:33N 38°36' E 015°31'2121.1
2017-Jan-08 22:34N 38°17' E 015°42'1919.1
2017-Jan-08 21:34N 37°60' E 015°31'2322.4
2017-Jan-08 20:33N 37°39' E 015°19'15 2.1
2017-Jan-08 13:23N 37°29' E 015°06'0 0.0
2017-Jan-08 07:15N 37°29' E 015°06'1013.6
2017-Jan-08 06:32N 37°34' E 015°16'2121.9
2017-Jan-08 05:34N 37°54' E 015°27'2221.8
2017-Jan-08 04:33N 38°14' E 015°36'1918.9
2017-Jan-08 03:33N 38°33' E 015°32'2221.8
2017-Jan-08 02:33N 38°52' E 015°20'  

Dump ship's entire track history